sensor_id;sensor_type;location;lat;lon;timestamp;P1;durP1;ratioP1;P2;durP2;ratioP2
32633;SDS011;19043;51.012;5.648;2022-07-19T00:00:02;6.25;;;2.47;;
32633;SDS011;19043;51.012;5.648;2022-07-19T00:02:34;3.70;;;2.30;;
32633;SDS011;19043;51.012;5.648;2022-07-19T00:04:59;4.60;;;2.53;;
32633;SDS011;19043;51.012;5.648;2022-07-19T00:07:25;4.60;;;2.28;;
32633;SDS011;19043;51.012;5.648;2022-07-19T00:09:50;4.13;;;2.30;;
32633;SDS011;19043;51.012;5.648;2022-07-19T00:12:15;5.82;;;2.30;;
32633;SDS011;19043;51.012;5.648;2022-07-19T00:14:41;5.80;;;2.55;;
32633;SDS011;19043;51.012;5.648;2022-07-19T00:17:06;3.80;;;2.25;;
32633;SDS011;19043;51.012;5.648;2022-07-19T00:19:32;5.47;;;2.92;;
32633;SDS011;19043;51.012;5.648;2022-07-19T00:21:58;4.88;;;2.55;;
32633;SDS011;19043;51.012;5.648;2022-07-19T00:24:23;4.47;;;2.67;;
32633;SDS011;19043;51.012;5.648;2022-07-19T00:26:49;8.18;;;3.13;;
32633;SDS011;19043;51.012;5.648;2022-07-19T00:29:14;4.53;;;2.47;;
32633;SDS011;19043;51.012;5.648;2022-07-19T00:31:39;5.13;;;2.45;;
32633;SDS011;19043;51.012;5.648;2022-07-19T00:34:05;3.80;;;2.08;;
32633;SDS011;19043;51.012;5.648;2022-07-19T00:36:30;3.80;;;2.40;;
32633;SDS011;19043;51.012;5.648;2022-07-19T00:38:55;5.78;;;2.80;;
32633;SDS011;19043;51.012;5.648;2022-07-19T00:41:21;4.95;;;2.50;;
32633;SDS011;19043;51.012;5.648;2022-07-19T00:43:46;3.85;;;2.38;;
32633;SDS011;19043;51.012;5.648;2022-07-19T00:46:15;3.78;;;2.35;;
32633;SDS011;19043;51.012;5.648;2022-07-19T00:48:46;4.88;;;3.00;;
32633;SDS011;19043;51.012;5.648;2022-07-19T00:51:12;4.05;;;2.63;;
32633;SDS011;19043;51.012;5.648;2022-07-19T00:53:41;4.88;;;2.63;;
32633;SDS011;19043;51.012;5.648;2022-07-19T00:56:07;4.68;;;2.67;;
32633;SDS011;19043;51.012;5.648;2022-07-19T00:58:34;4.47;;;2.20;;
32633;SDS011;19043;51.012;5.648;2022-07-19T01:01:01;5.05;;;2.90;;
32633;SDS011;19043;51.012;5.648;2022-07-19T01:03:28;4.25;;;2.75;;
32633;SDS011;19043;51.012;5.648;2022-07-19T01:05:53;11.05;;;2.80;;
32633;SDS011;19043;51.012;5.648;2022-07-19T01:08:19;4.43;;;2.70;;
32633;SDS011;19043;51.012;5.648;2022-07-19T01:10:44;5.20;;;2.90;;
32633;SDS011;19043;51.012;5.648;2022-07-19T01:13:12;4.05;;;2.40;;
32633;SDS011;19043;51.012;5.648;2022-07-19T01:15:39;4.68;;;2.78;;
32633;SDS011;19043;51.012;5.648;2022-07-19T01:18:05;5.13;;;3.03;;
32633;SDS011;19043;51.012;5.648;2022-07-19T01:20:31;4.40;;;2.70;;
32633;SDS011;19043;51.012;5.648;2022-07-19T01:22:57;4.00;;;2.50;;
32633;SDS011;19043;51.012;5.648;2022-07-19T01:25:23;6.60;;;3.03;;
32633;SDS011;19043;51.012;5.648;2022-07-19T01:27:51;4.68;;;2.88;;
32633;SDS011;19043;51.012;5.648;2022-07-19T01:30:18;5.28;;;3.03;;
32633;SDS011;19043;51.012;5.648;2022-07-19T01:32:46;5.53;;;2.80;;
32633;SDS011;19043;51.012;5.648;2022-07-19T01:35:12;4.47;;;2.85;;
32633;SDS011;19043;51.012;5.648;2022-07-19T01:37:38;5.78;;;2.58;;
32633;SDS011;19043;51.012;5.648;2022-07-19T01:40:04;6.18;;;2.95;;
32633;SDS011;19043;51.012;5.648;2022-07-19T01:42:31;4.93;;;2.55;;
32633;SDS011;19043;51.012;5.648;2022-07-19T01:44:56;3.55;;;2.13;;
32633;SDS011;19043;51.012;5.648;2022-07-19T01:47:22;5.45;;;2.80;;
32633;SDS011;19043;51.012;5.648;2022-07-19T01:49:48;6.18;;;2.30;;
32633;SDS011;19043;51.012;5.648;2022-07-19T01:52:13;6.28;;;3.05;;
32633;SDS011;19043;51.012;5.648;2022-07-19T01:54:38;6.43;;;2.72;;
32633;SDS011;19043;51.012;5.648;2022-07-19T01:57:04;5.90;;;2.92;;
32633;SDS011;19043;51.012;5.648;2022-07-19T01:59:29;5.07;;;2.70;;
32633;SDS011;19043;51.012;5.648;2022-07-19T02:01:55;9.65;;;3.25;;
32633;SDS011;19043;51.012;5.648;2022-07-19T02:04:20;4.07;;;2.65;;
32633;SDS011;19043;51.012;5.648;2022-07-19T02:06:45;4.95;;;2.95;;
32633;SDS011;19043;51.012;5.648;2022-07-19T02:09:11;5.78;;;3.08;;
32633;SDS011;19043;51.012;5.648;2022-07-19T02:11:36;4.07;;;2.53;;
32633;SDS011;19043;51.012;5.648;2022-07-19T02:14:07;5.60;;;2.95;;
32633;SDS011;19043;51.012;5.648;2022-07-19T02:16:34;10.82;;;3.60;;
32633;SDS011;19043;51.012;5.648;2022-07-19T02:19:00;4.75;;;2.63;;
32633;SDS011;19043;51.012;5.648;2022-07-19T02:21:25;3.80;;;2.75;;
32633;SDS011;19043;51.012;5.648;2022-07-19T02:23:51;4.72;;;2.85;;
32633;SDS011;19043;51.012;5.648;2022-07-19T02:26:16;5.35;;;2.97;;
32633;SDS011;19043;51.012;5.648;2022-07-19T02:28:42;8.27;;;2.75;;
32633;SDS011;19043;51.012;5.648;2022-07-19T02:31:07;4.07;;;2.65;;
32633;SDS011;19043;51.012;5.648;2022-07-19T02:33:32;4.80;;;3.00;;
32633;SDS011;19043;51.012;5.648;2022-07-19T02:35:58;7.45;;;2.80;;
32633;SDS011;19043;51.012;5.648;2022-07-19T02:38:23;5.47;;;2.95;;
32633;SDS011;19043;51.012;5.648;2022-07-19T02:40:48;6.00;;;2.90;;
32633;SDS011;19043;51.012;5.648;2022-07-19T02:43:14;5.07;;;2.75;;
32633;SDS011;19043;51.012;5.648;2022-07-19T02:45:39;5.32;;;3.08;;
32633;SDS011;19043;51.012;5.648;2022-07-19T02:48:05;6.55;;;3.05;;
32633;SDS011;19043;51.012;5.648;2022-07-19T02:50:31;5.45;;;3.00;;
32633;SDS011;19043;51.012;5.648;2022-07-19T02:52:56;5.25;;;3.17;;
32633;SDS011;19043;51.012;5.648;2022-07-19T02:55:21;4.60;;;2.20;;
32633;SDS011;19043;51.012;5.648;2022-07-19T02:57:47;7.00;;;3.42;;
32633;SDS011;19043;51.012;5.648;2022-07-19T03:00:12;6.93;;;3.13;;
32633;SDS011;19043;51.012;5.648;2022-07-19T03:02:38;4.22;;;2.80;;
32633;SDS011;19043;51.012;5.648;2022-07-19T03:05:04;5.90;;;2.80;;
32633;SDS011;19043;51.012;5.648;2022-07-19T03:07:30;8.50;;;3.42;;
32633;SDS011;19043;51.012;5.648;2022-07-19T03:09:56;3.90;;;2.53;;
32633;SDS011;19043;51.012;5.648;2022-07-19T03:12:21;5.40;;;3.10;;
32633;SDS011;19043;51.012;5.648;2022-07-19T03:14:46;4.35;;;2.60;;
32633;SDS011;19043;51.012;5.648;2022-07-19T03:17:12;4.25;;;2.50;;
32633;SDS011;19043;51.012;5.648;2022-07-19T03:19:37;6.28;;;2.35;;
32633;SDS011;19043;51.012;5.648;2022-07-19T03:22:03;6.93;;;2.78;;
32633;SDS011;19043;51.012;5.648;2022-07-19T03:24:28;6.13;;;2.70;;
32633;SDS011;19043;51.012;5.648;2022-07-19T03:26:53;4.88;;;2.63;;
32633;SDS011;19043;51.012;5.648;2022-07-19T03:29:19;8.68;;;2.60;;
32633;SDS011;19043;51.012;5.648;2022-07-19T03:31:44;6.68;;;2.97;;
32633;SDS011;19043;51.012;5.648;2022-07-19T03:34:10;6.53;;;2.70;;
32633;SDS011;19043;51.012;5.648;2022-07-19T03:36:35;4.70;;;2.75;;
32633;SDS011;19043;51.012;5.648;2022-07-19T03:39:01;6.60;;;3.00;;
32633;SDS011;19043;51.012;5.648;2022-07-19T03:41:26;4.88;;;2.70;;
32633;SDS011;19043;51.012;5.648;2022-07-19T03:43:52;5.68;;;2.58;;
32633;SDS011;19043;51.012;5.648;2022-07-19T03:46:18;4.55;;;2.95;;
32633;SDS011;19043;51.012;5.648;2022-07-19T03:48:45;5.25;;;2.95;;
32633;SDS011;19043;51.012;5.648;2022-07-19T03:51:11;5.40;;;2.38;;
32633;SDS011;19043;51.012;5.648;2022-07-19T03:53:37;4.82;;;2.65;;
32633;SDS011;19043;51.012;5.648;2022-07-19T03:56:02;4.00;;;2.63;;
32633;SDS011;19043;51.012;5.648;2022-07-19T03:58:28;4.18;;;2.25;;
32633;SDS011;19043;51.012;5.648;2022-07-19T04:00:54;4.50;;;2.42;;
32633;SDS011;19043;51.012;5.648;2022-07-19T04:03:19;4.82;;;3.17;;
32633;SDS011;19043;51.012;5.648;2022-07-19T04:05:44;4.97;;;3.03;;
32633;SDS011;19043;51.012;5.648;2022-07-19T04:08:10;4.30;;;2.47;;
32633;SDS011;19043;51.012;5.648;2022-07-19T04:10:35;4.70;;;2.67;;
32633;SDS011;19043;51.012;5.648;2022-07-19T04:13:01;4.00;;;2.60;;
32633;SDS011;19043;51.012;5.648;2022-07-19T04:15:26;4.40;;;2.60;;
32633;SDS011;19043;51.012;5.648;2022-07-19T04:17:51;4.47;;;2.78;;
32633;SDS011;19043;51.012;5.648;2022-07-19T04:20:17;7.20;;;3.17;;
32633;SDS011;19043;51.012;5.648;2022-07-19T04:22:42;5.25;;;2.60;;
32633;SDS011;19043;51.012;5.648;2022-07-19T04:25:08;5.80;;;2.75;;
32633;SDS011;19043;51.012;5.648;2022-07-19T04:27:34;5.13;;;2.75;;
32633;SDS011;19043;51.012;5.648;2022-07-19T04:29:59;5.43;;;2.47;;
32633;SDS011;19043;51.012;5.648;2022-07-19T04:32:24;5.18;;;2.45;;
32633;SDS011;19043;51.012;5.648;2022-07-19T04:34:50;3.25;;;1.85;;
32633;SDS011;19043;51.012;5.648;2022-07-19T04:37:15;4.22;;;2.25;;
32633;SDS011;19043;51.012;5.648;2022-07-19T04:39:41;3.53;;;2.20;;
32633;SDS011;19043;51.012;5.648;2022-07-19T04:42:06;3.80;;;2.35;;
32633;SDS011;19043;51.012;5.648;2022-07-19T04:44:32;4.65;;;2.50;;
32633;SDS011;19043;51.012;5.648;2022-07-19T04:46:58;5.93;;;2.42;;
32633;SDS011;19043;51.012;5.648;2022-07-19T04:49:23;5.72;;;2.50;;
32633;SDS011;19043;51.012;5.648;2022-07-19T04:51:48;3.90;;;2.50;;
32633;SDS011;19043;51.012;5.648;2022-07-19T04:54:14;4.47;;;2.78;;
32633;SDS011;19043;51.012;5.648;2022-07-19T04:56:39;4.88;;;2.40;;
32633;SDS011;19043;51.012;5.648;2022-07-19T04:59:05;4.75;;;2.45;;
32633;SDS011;19043;51.012;5.648;2022-07-19T05:01:30;4.13;;;2.67;;
32633;SDS011;19043;51.012;5.648;2022-07-19T05:03:56;6.15;;;3.08;;
32633;SDS011;19043;51.012;5.648;2022-07-19T05:06:21;4.65;;;2.45;;
32633;SDS011;19043;51.012;5.648;2022-07-19T05:08:49;6.18;;;2.88;;
32633;SDS011;19043;51.012;5.648;2022-07-19T05:11:15;7.78;;;3.08;;
32633;SDS011;19043;51.012;5.648;2022-07-19T05:13:40;4.55;;;2.50;;
32633;SDS011;19043;51.012;5.648;2022-07-19T05:16:06;4.00;;;2.53;;
32633;SDS011;19043;51.012;5.648;2022-07-19T05:18:31;5.40;;;2.72;;
32633;SDS011;19043;51.012;5.648;2022-07-19T05:20:57;7.28;;;2.70;;
32633;SDS011;19043;51.012;5.648;2022-07-19T05:23:22;6.75;;;2.60;;
32633;SDS011;19043;51.012;5.648;2022-07-19T05:25:47;4.97;;;2.25;;
32633;SDS011;19043;51.012;5.648;2022-07-19T05:28:13;4.72;;;2.78;;
32633;SDS011;19043;51.012;5.648;2022-07-19T05:30:38;6.47;;;2.83;;
32633;SDS011;19043;51.012;5.648;2022-07-19T05:33:04;4.35;;;2.90;;
32633;SDS011;19043;51.012;5.648;2022-07-19T05:35:29;7.22;;;3.03;;
32633;SDS011;19043;51.012;5.648;2022-07-19T05:37:55;5.25;;;2.92;;
32633;SDS011;19043;51.012;5.648;2022-07-19T05:40:20;4.50;;;2.45;;
32633;SDS011;19043;51.012;5.648;2022-07-19T05:42:45;4.85;;;2.72;;
32633;SDS011;19043;51.012;5.648;2022-07-19T05:45:11;5.20;;;2.90;;
32633;SDS011;19043;51.012;5.648;2022-07-19T05:47:36;7.88;;;3.00;;
32633;SDS011;19043;51.012;5.648;2022-07-19T05:50:02;4.53;;;2.75;;
32633;SDS011;19043;51.012;5.648;2022-07-19T05:52:28;5.85;;;2.95;;
32633;SDS011;19043;51.012;5.648;2022-07-19T05:54:53;5.68;;;3.03;;
32633;SDS011;19043;51.012;5.648;2022-07-19T05:57:19;6.22;;;3.33;;
32633;SDS011;19043;51.012;5.648;2022-07-19T05:59:44;6.07;;;3.40;;
32633;SDS011;19043;51.012;5.648;2022-07-19T06:02:09;5.07;;;2.95;;
32633;SDS011;19043;51.012;5.648;2022-07-19T06:04:35;8.18;;;2.85;;
32633;SDS011;19043;51.012;5.648;2022-07-19T06:07:00;6.57;;;3.35;;
32633;SDS011;19043;51.012;5.648;2022-07-19T06:09:25;7.30;;;3.55;;
32633;SDS011;19043;51.012;5.648;2022-07-19T06:11:51;6.72;;;3.50;;
32633;SDS011;19043;51.012;5.648;2022-07-19T06:14:18;4.55;;;3.08;;
32633;SDS011;19043;51.012;5.648;2022-07-19T06:16:43;6.65;;;3.08;;
32633;SDS011;19043;51.012;5.648;2022-07-19T06:19:09;6.05;;;3.22;;
32633;SDS011;19043;51.012;5.648;2022-07-19T06:21:36;5.40;;;3.00;;
32633;SDS011;19043;51.012;5.648;2022-07-19T06:24:01;8.25;;;3.40;;
32633;SDS011;19043;51.012;5.648;2022-07-19T06:26:27;4.47;;;3.28;;
32633;SDS011;19043;51.012;5.648;2022-07-19T06:28:53;9.38;;;3.60;;
32633;SDS011;19043;51.012;5.648;2022-07-19T06:31:19;5.80;;;3.03;;
32633;SDS011;19043;51.012;5.648;2022-07-19T06:33:45;6.43;;;3.20;;
32633;SDS011;19043;51.012;5.648;2022-07-19T06:36:11;7.95;;;3.83;;
32633;SDS011;19043;51.012;5.648;2022-07-19T06:38:37;5.25;;;3.35;;
32633;SDS011;19043;51.012;5.648;2022-07-19T06:41:03;7.57;;;3.20;;
32633;SDS011;19043;51.012;5.648;2022-07-19T06:43:28;6.30;;;3.25;;
32633;SDS011;19043;51.012;5.648;2022-07-19T06:45:54;6.82;;;3.55;;
32633;SDS011;19043;51.012;5.648;2022-07-19T06:48:20;6.90;;;3.05;;
32633;SDS011;19043;51.012;5.648;2022-07-19T06:50:46;15.65;;;3.47;;
32633;SDS011;19043;51.012;5.648;2022-07-19T06:53:11;5.85;;;2.95;;
32633;SDS011;19043;51.012;5.648;2022-07-19T06:55:37;17.83;;;5.82;;
32633;SDS011;19043;51.012;5.648;2022-07-19T06:58:02;12.20;;;4.25;;
32633;SDS011;19043;51.012;5.648;2022-07-19T07:00:27;13.05;;;5.07;;
32633;SDS011;19043;51.012;5.648;2022-07-19T07:02:53;9.38;;;4.60;;
32633;SDS011;19043;51.012;5.648;2022-07-19T07:05:18;12.48;;;4.30;;
32633;SDS011;19043;51.012;5.648;2022-07-19T07:07:44;10.38;;;5.03;;
32633;SDS011;19043;51.012;5.648;2022-07-19T07:10:09;8.25;;;3.70;;
32633;SDS011;19043;51.012;5.648;2022-07-19T07:12:35;14.88;;;5.50;;
32633;SDS011;19043;51.012;5.648;2022-07-19T07:15:01;25.65;;;7.30;;
32633;SDS011;19043;51.012;5.648;2022-07-19T07:17:27;32.75;;;6.88;;
32633;SDS011;19043;51.012;5.648;2022-07-19T07:19:52;15.07;;;3.67;;
32633;SDS011;19043;51.012;5.648;2022-07-19T07:22:18;5.70;;;3.45;;
32633;SDS011;19043;51.012;5.648;2022-07-19T07:24:43;9.15;;;3.75;;
32633;SDS011;19043;51.012;5.648;2022-07-19T07:27:09;6.97;;;3.42;;
32633;SDS011;19043;51.012;5.648;2022-07-19T07:29:34;5.07;;;3.03;;
32633;SDS011;19043;51.012;5.648;2022-07-19T07:32:00;6.38;;;3.28;;
32633;SDS011;19043;51.012;5.648;2022-07-19T07:34:25;7.63;;;3.20;;
32633;SDS011;19043;51.012;5.648;2022-07-19T07:36:51;6.35;;;3.45;;
32633;SDS011;19043;51.012;5.648;2022-07-19T07:39:16;6.05;;;3.40;;
32633;SDS011;19043;51.012;5.648;2022-07-19T07:41:42;7.97;;;3.20;;
32633;SDS011;19043;51.012;5.648;2022-07-19T07:44:07;6.45;;;3.00;;
32633;SDS011;19043;51.012;5.648;2022-07-19T07:46:33;6.75;;;3.20;;
32633;SDS011;19043;51.012;5.648;2022-07-19T07:48:58;15.23;;;3.53;;
32633;SDS011;19043;51.012;5.648;2022-07-19T07:51:24;13.00;;;4.30;;
32633;SDS011;19043;51.012;5.648;2022-07-19T07:53:49;12.80;;;4.30;;
32633;SDS011;19043;51.012;5.648;2022-07-19T07:56:15;9.60;;;3.47;;
32633;SDS011;19043;51.012;5.648;2022-07-19T07:58:40;8.45;;;3.40;;
32633;SDS011;19043;51.012;5.648;2022-07-19T08:01:06;6.80;;;3.35;;
32633;SDS011;19043;51.012;5.648;2022-07-19T08:03:31;7.15;;;3.42;;
32633;SDS011;19043;51.012;5.648;2022-07-19T08:05:56;8.38;;;3.53;;
32633;SDS011;19043;51.012;5.648;2022-07-19T08:08:23;6.57;;;3.75;;
32633;SDS011;19043;51.012;5.648;2022-07-19T08:10:55;6.90;;;3.47;;
32633;SDS011;19043;51.012;5.648;2022-07-19T08:13:20;8.57;;;3.17;;
32633;SDS011;19043;51.012;5.648;2022-07-19T08:15:46;8.23;;;3.83;;
32633;SDS011;19043;51.012;5.648;2022-07-19T08:18:12;8.30;;;3.88;;
32633;SDS011;19043;51.012;5.648;2022-07-19T08:20:37;8.10;;;3.65;;
32633;SDS011;19043;51.012;5.648;2022-07-19T08:23:03;8.15;;;3.35;;
32633;SDS011;19043;51.012;5.648;2022-07-19T08:25:28;10.20;;;3.25;;
32633;SDS011;19043;51.012;5.648;2022-07-19T08:27:54;7.00;;;3.10;;
32633;SDS011;19043;51.012;5.648;2022-07-19T08:30:19;11.30;;;3.78;;
32633;SDS011;19043;51.012;5.648;2022-07-19T08:32:44;9.00;;;3.88;;
32633;SDS011;19043;51.012;5.648;2022-07-19T08:35:10;10.30;;;3.40;;
32633;SDS011;19043;51.012;5.648;2022-07-19T08:37:36;13.63;;;4.38;;
32633;SDS011;19043;51.012;5.648;2022-07-19T08:40:02;11.32;;;3.55;;
32633;SDS011;19043;51.012;5.648;2022-07-19T08:42:29;8.00;;;3.13;;
32633;SDS011;19043;51.012;5.648;2022-07-19T08:44:55;6.30;;;2.75;;
32633;SDS011;19043;51.012;5.648;2022-07-19T08:47:21;7.35;;;3.05;;
32633;SDS011;19043;51.012;5.648;2022-07-19T08:49:47;6.90;;;3.35;;
32633;SDS011;19043;51.012;5.648;2022-07-19T08:52:13;8.18;;;3.67;;
32633;SDS011;19043;51.012;5.648;2022-07-19T08:54:39;11.00;;;3.80;;
32633;SDS011;19043;51.012;5.648;2022-07-19T08:57:05;8.90;;;3.08;;
32633;SDS011;19043;51.012;5.648;2022-07-19T09:02:15;9.32;;;3.65;;
32633;SDS011;19043;51.012;5.648;2022-07-19T09:04:40;7.72;;;4.20;;
32633;SDS011;19043;51.012;5.648;2022-07-19T09:07:06;7.45;;;3.35;;
32633;SDS011;19043;51.012;5.648;2022-07-19T09:09:32;8.80;;;3.63;;
32633;SDS011;19043;51.012;5.648;2022-07-19T09:12:02;7.90;;;3.25;;
32633;SDS011;19043;51.012;5.648;2022-07-19T09:14:30;10.88;;;3.55;;
32633;SDS011;19043;51.012;5.648;2022-07-19T09:19:45;7.10;;;3.05;;
32633;SDS011;19043;51.012;5.648;2022-07-19T09:22:15;6.85;;;3.10;;
32633;SDS011;19043;51.012;5.648;2022-07-19T09:24:49;9.70;;;3.30;;
32633;SDS011;19043;51.012;5.648;2022-07-19T09:27:16;8.13;;;2.97;;
32633;SDS011;19043;51.012;5.648;2022-07-19T09:29:46;10.90;;;3.10;;
32633;SDS011;19043;51.012;5.648;2022-07-19T09:32:14;5.72;;;2.70;;
32633;SDS011;19043;51.012;5.648;2022-07-19T09:34:53;6.68;;;2.65;;
32633;SDS011;19043;51.012;5.648;2022-07-19T09:39:44;7.50;;;2.92;;
32633;SDS011;19043;51.012;5.648;2022-07-19T09:42:15;9.27;;;2.90;;
32633;SDS011;19043;51.012;5.648;2022-07-19T09:44:42;9.48;;;2.75;;
32633;SDS011;19043;51.012;5.648;2022-07-19T09:47:09;7.97;;;2.55;;
32633;SDS011;19043;51.012;5.648;2022-07-19T09:49:34;6.18;;;2.72;;
32633;SDS011;19043;51.012;5.648;2022-07-19T09:52:00;4.28;;;2.45;;
32633;SDS011;19043;51.012;5.648;2022-07-19T09:54:26;6.75;;;2.70;;
32633;SDS011;19043;51.012;5.648;2022-07-19T09:56:53;4.50;;;2.30;;
32633;SDS011;19043;51.012;5.648;2022-07-19T09:59:20;7.20;;;2.83;;
32633;SDS011;19043;51.012;5.648;2022-07-19T10:01:47;4.45;;;2.60;;
32633;SDS011;19043;51.012;5.648;2022-07-19T10:04:14;6.43;;;3.00;;
32633;SDS011;19043;51.012;5.648;2022-07-19T10:06:41;5.07;;;2.45;;
32633;SDS011;19043;51.012;5.648;2022-07-19T10:09:08;9.18;;;3.17;;
32633;SDS011;19043;51.012;5.648;2022-07-19T10:11:36;7.97;;;3.08;;
32633;SDS011;19043;51.012;5.648;2022-07-19T10:14:02;5.80;;;3.35;;
32633;SDS011;19043;51.012;5.648;2022-07-19T10:19:33;4.38;;;2.47;;
32633;SDS011;19043;51.012;5.648;2022-07-19T10:22:10;4.38;;;2.40;;
32633;SDS011;19043;51.012;5.648;2022-07-19T10:24:44;7.82;;;2.78;;
32633;SDS011;19043;51.012;5.648;2022-07-19T10:27:10;4.70;;;2.83;;
32633;SDS011;19043;51.012;5.648;2022-07-19T10:29:36;5.13;;;2.65;;
32633;SDS011;19043;51.012;5.648;2022-07-19T10:34:31;9.02;;;3.20;;
32633;SDS011;19043;51.012;5.648;2022-07-19T10:36:56;4.30;;;2.42;;
32633;SDS011;19043;51.012;5.648;2022-07-19T10:50:09;9.07;;;2.78;;
32633;SDS011;19043;51.012;5.648;2022-07-19T10:52:36;8.80;;;3.03;;
32633;SDS011;19043;51.012;5.648;2022-07-19T11:00:41;8.48;;;3.00;;
32633;SDS011;19043;51.012;5.648;2022-07-19T11:05:47;7.18;;;2.72;;
32633;SDS011;19043;51.012;5.648;2022-07-19T11:08:15;11.15;;;3.40;;
32633;SDS011;19043;51.012;5.648;2022-07-19T11:10:41;7.50;;;3.28;;
32633;SDS011;19043;51.012;5.648;2022-07-19T11:13:07;9.05;;;3.33;;
32633;SDS011;19043;51.012;5.648;2022-07-19T11:15:32;5.28;;;2.90;;
32633;SDS011;19043;51.012;5.648;2022-07-19T11:18:03;7.80;;;3.08;;
32633;SDS011;19043;51.012;5.648;2022-07-19T11:20:31;7.47;;;2.97;;
32633;SDS011;19043;51.012;5.648;2022-07-19T11:22:58;8.27;;;3.03;;
32633;SDS011;19043;51.012;5.648;2022-07-19T11:25:25;6.97;;;2.80;;
32633;SDS011;19043;51.012;5.648;2022-07-19T11:27:56;5.63;;;2.75;;
32633;SDS011;19043;51.012;5.648;2022-07-19T11:30:23;8.48;;;2.88;;
32633;SDS011;19043;51.012;5.648;2022-07-19T11:32:56;6.38;;;2.38;;
32633;SDS011;19043;51.012;5.648;2022-07-19T11:35:22;5.05;;;2.45;;
32633;SDS011;19043;51.012;5.648;2022-07-19T11:37:48;5.72;;;2.60;;
32633;SDS011;19043;51.012;5.648;2022-07-19T11:40:17;5.70;;;2.67;;
32633;SDS011;19043;51.012;5.648;2022-07-19T11:42:43;5.00;;;2.53;;
32633;SDS011;19043;51.012;5.648;2022-07-19T11:45:17;7.43;;;2.70;;
32633;SDS011;19043;51.012;5.648;2022-07-19T11:47:44;5.22;;;2.90;;
32633;SDS011;19043;51.012;5.648;2022-07-19T11:50:14;5.47;;;2.53;;
32633;SDS011;19043;51.012;5.648;2022-07-19T11:52:59;9.00;;;3.08;;
32633;SDS011;19043;51.012;5.648;2022-07-19T11:55:35;6.22;;;3.10;;
32633;SDS011;19043;51.012;5.648;2022-07-19T11:58:08;5.57;;;2.40;;
32633;SDS011;19043;51.012;5.648;2022-07-19T12:00:35;6.20;;;2.90;;
32633;SDS011;19043;51.012;5.648;2022-07-19T12:03:01;8.57;;;3.85;;
32633;SDS011;19043;51.012;5.648;2022-07-19T12:05:33;6.43;;;2.90;;
32633;SDS011;19043;51.012;5.648;2022-07-19T12:08:02;7.15;;;3.63;;
32633;SDS011;19043;51.012;5.648;2022-07-19T12:10:33;10.73;;;3.17;;
32633;SDS011;19043;51.012;5.648;2022-07-19T12:13:04;7.75;;;3.33;;
32633;SDS011;19043;51.012;5.648;2022-07-19T12:18:18;9.50;;;3.42;;
32633;SDS011;19043;51.012;5.648;2022-07-19T12:21:13;9.02;;;3.08;;
32633;SDS011;19043;51.012;5.648;2022-07-19T12:26:33;10.00;;;3.15;;
32633;SDS011;19043;51.012;5.648;2022-07-19T12:28:59;16.40;;;3.38;;
32633;SDS011;19043;51.012;5.648;2022-07-19T12:31:24;7.85;;;3.47;;
32633;SDS011;19043;51.012;5.648;2022-07-19T12:33:59;7.82;;;3.60;;
32633;SDS011;19043;51.012;5.648;2022-07-19T12:36:31;6.40;;;3.47;;
32633;SDS011;19043;51.012;5.648;2022-07-19T12:38:59;5.72;;;3.10;;
32633;SDS011;19043;51.012;5.648;2022-07-19T12:41:25;5.30;;;2.97;;
32633;SDS011;19043;51.012;5.648;2022-07-19T12:43:50;12.73;;;3.60;;
32633;SDS011;19043;51.012;5.648;2022-07-19T12:46:15;7.45;;;3.05;;
32633;SDS011;19043;51.012;5.648;2022-07-19T12:48:41;9.57;;;3.10;;
32633;SDS011;19043;51.012;5.648;2022-07-19T12:51:06;13.40;;;3.83;;
32633;SDS011;19043;51.012;5.648;2022-07-19T12:53:32;8.27;;;3.30;;
32633;SDS011;19043;51.012;5.648;2022-07-19T12:56:00;9.18;;;3.50;;
32633;SDS011;19043;51.012;5.648;2022-07-19T12:58:26;17.95;;;3.80;;
32633;SDS011;19043;51.012;5.648;2022-07-19T13:01:10;7.78;;;3.15;;
32633;SDS011;19043;51.012;5.648;2022-07-19T13:03:37;6.10;;;3.45;;
32633;SDS011;19043;51.012;5.648;2022-07-19T13:06:04;8.27;;;3.47;;
32633;SDS011;19043;51.012;5.648;2022-07-19T13:08:29;8.88;;;3.45;;
32633;SDS011;19043;51.012;5.648;2022-07-19T13:10:55;8.93;;;3.17;;
32633;SDS011;19043;51.012;5.648;2022-07-19T13:13:21;10.75;;;3.47;;
32633;SDS011;19043;51.012;5.648;2022-07-19T13:15:47;4.95;;;2.90;;
32633;SDS011;19043;51.012;5.648;2022-07-19T13:18:12;8.20;;;3.38;;
32633;SDS011;19043;51.012;5.648;2022-07-19T13:20:37;7.13;;;3.05;;
32633;SDS011;19043;51.012;5.648;2022-07-19T13:23:03;10.07;;;3.33;;
32633;SDS011;19043;51.012;5.648;2022-07-19T13:25:28;10.13;;;3.15;;
32633;SDS011;19043;51.012;5.648;2022-07-19T13:27:54;5.78;;;2.88;;
32633;SDS011;19043;51.012;5.648;2022-07-19T13:30:19;6.95;;;3.40;;
32633;SDS011;19043;51.012;5.648;2022-07-19T13:32:45;7.40;;;2.67;;
32633;SDS011;19043;51.012;5.648;2022-07-19T13:35:10;5.57;;;2.70;;
32633;SDS011;19043;51.012;5.648;2022-07-19T13:37:36;6.50;;;3.10;;
32633;SDS011;19043;51.012;5.648;2022-07-19T13:40:01;10.68;;;2.92;;
32633;SDS011;19043;51.012;5.648;2022-07-19T13:42:26;6.95;;;3.13;;
32633;SDS011;19043;51.012;5.648;2022-07-19T13:44:52;4.50;;;2.47;;
32633;SDS011;19043;51.012;5.648;2022-07-19T13:47:17;5.63;;;2.70;;
32633;SDS011;19043;51.012;5.648;2022-07-19T13:49:43;7.15;;;2.90;;
32633;SDS011;19043;51.012;5.648;2022-07-19T13:52:08;4.90;;;2.67;;
32633;SDS011;19043;51.012;5.648;2022-07-19T13:54:34;6.78;;;2.60;;
32633;SDS011;19043;51.012;5.648;2022-07-19T13:56:59;6.35;;;2.88;;
32633;SDS011;19043;51.012;5.648;2022-07-19T13:59:25;10.05;;;2.70;;
32633;SDS011;19043;51.012;5.648;2022-07-19T14:01:51;21.27;;;3.05;;
32633;SDS011;19043;51.012;5.648;2022-07-19T14:04:17;7.90;;;2.83;;
32633;SDS011;19043;51.012;5.648;2022-07-19T14:06:42;9.10;;;2.90;;
32633;SDS011;19043;51.012;5.648;2022-07-19T14:09:08;5.25;;;2.80;;
32633;SDS011;19043;51.012;5.648;2022-07-19T14:11:33;8.95;;;3.22;;
32633;SDS011;19043;51.012;5.648;2022-07-19T14:14:00;6.22;;;2.63;;
32633;SDS011;19043;51.012;5.648;2022-07-19T14:16:25;10.63;;;2.92;;
32633;SDS011;19043;51.012;5.648;2022-07-19T14:18:51;7.78;;;3.08;;
32633;SDS011;19043;51.012;5.648;2022-07-19T14:21:17;6.85;;;2.97;;
32633;SDS011;19043;51.012;5.648;2022-07-19T14:23:42;5.10;;;2.47;;
32633;SDS011;19043;51.012;5.648;2022-07-19T14:26:08;11.00;;;3.28;;
32633;SDS011;19043;51.012;5.648;2022-07-19T14:28:33;11.65;;;3.60;;
32633;SDS011;19043;51.012;5.648;2022-07-19T14:30:58;6.45;;;2.75;;
32633;SDS011;19043;51.012;5.648;2022-07-19T14:33:24;5.15;;;2.70;;
32633;SDS011;19043;51.012;5.648;2022-07-19T14:35:51;6.60;;;2.92;;
32633;SDS011;19043;51.012;5.648;2022-07-19T14:38:16;8.73;;;2.78;;
32633;SDS011;19043;51.012;5.648;2022-07-19T14:40:42;6.55;;;3.20;;
32633;SDS011;19043;51.012;5.648;2022-07-19T14:43:07;6.85;;;3.10;;
32633;SDS011;19043;51.012;5.648;2022-07-19T14:45:32;6.70;;;2.55;;
32633;SDS011;19043;51.012;5.648;2022-07-19T14:47:58;7.50;;;2.92;;
32633;SDS011;19043;51.012;5.648;2022-07-19T14:50:23;5.07;;;2.65;;
32633;SDS011;19043;51.012;5.648;2022-07-19T14:52:49;3.22;;;1.90;;
32633;SDS011;19043;51.012;5.648;2022-07-19T14:55:14;5.40;;;2.33;;
32633;SDS011;19043;51.012;5.648;2022-07-19T14:57:40;6.25;;;2.10;;
32633;SDS011;19043;51.012;5.648;2022-07-19T15:00:06;7.00;;;2.25;;
32633;SDS011;19043;51.012;5.648;2022-07-19T15:02:33;6.13;;;2.03;;
32633;SDS011;19043;51.012;5.648;2022-07-19T15:04:59;4.00;;;2.00;;
32633;SDS011;19043;51.012;5.648;2022-07-19T15:07:25;6.47;;;2.53;;
32633;SDS011;19043;51.012;5.648;2022-07-19T15:09:51;5.43;;;2.47;;
32633;SDS011;19043;51.012;5.648;2022-07-19T15:12:17;10.75;;;2.70;;
32633;SDS011;19043;51.012;5.648;2022-07-19T15:14:42;4.45;;;2.28;;
32633;SDS011;19043;51.012;5.648;2022-07-19T15:17:07;8.82;;;2.47;;